Terminal Aerodrome Forecast
Issued by NWS

Home | Current Version | Previous Version | Text Only | Print | Product List | Glossary On
Versions: 1 2 3 4 5 6 7 8 9 10 11 12 13 14
000
FTUS45 KRIW 311100
TAFCPR
TAF
KCPR 311123Z 3112/0112 VRB05KT P6SM SCT090 BKN200
     FM311600 24010KT P6SM SKC
     FM312100 01012G20KT P6SM SCT030
     FM010000 01011KT P6SM OVC025
     FM010300 02009KT 4SM -SN SCT008 OVC015
     FM011000 36006KT 6SM -SN SCT012 OVC020=

USA.gov is the U.S. government's official web portal to all federal, state and local government web resources and services.